sensor_id;sensor_type;location;lat;lon;timestamp;P1;durP1;ratioP1;P2;durP2;ratioP2
41263;SDS011;26998;48.714;9.414;2024-02-15T00:00:16;7.95;;;5.30;;
41263;SDS011;26998;48.714;9.414;2024-02-15T00:02:46;7.20;;;5.00;;
41263;SDS011;26998;48.714;9.414;2024-02-15T00:05:29;8.50;;;5.20;;
41263;SDS011;26998;48.714;9.414;2024-02-15T00:07:56;8.35;;;5.20;;
41263;SDS011;26998;48.714;9.414;2024-02-15T00:10:22;6.03;;;4.28;;
41263;SDS011;26998;48.714;9.414;2024-02-15T00:12:51;7.75;;;4.45;;
41263;SDS011;26998;48.714;9.414;2024-02-15T00:15:18;7.60;;;4.90;;
41263;SDS011;26998;48.714;9.414;2024-02-15T00:17:45;5.30;;;4.40;;
41263;SDS011;26998;48.714;9.414;2024-02-15T00:20:13;6.65;;;4.65;;
41263;SDS011;26998;48.714;9.414;2024-02-15T00:22:45;6.28;;;4.43;;
41263;SDS011;26998;48.714;9.414;2024-02-15T00:25:11;5.95;;;4.78;;
41263;SDS011;26998;48.714;9.414;2024-02-15T00:27:40;6.75;;;4.80;;
41263;SDS011;26998;48.714;9.414;2024-02-15T00:30:08;6.90;;;4.47;;
41263;SDS011;26998;48.714;9.414;2024-02-15T00:32:35;8.43;;;5.25;;
41263;SDS011;26998;48.714;9.414;2024-02-15T00:35:04;6.97;;;4.70;;
41263;SDS011;26998;48.714;9.414;2024-02-15T00:37:35;7.90;;;5.07;;
41263;SDS011;26998;48.714;9.414;2024-02-15T00:40:02;10.50;;;5.57;;
41263;SDS011;26998;48.714;9.414;2024-02-15T00:42:30;8.10;;;5.87;;
41263;SDS011;26998;48.714;9.414;2024-02-15T00:44:59;25.77;;;22.33;;
41263;SDS011;26998;48.714;9.414;2024-02-15T00:47:26;51.38;;;44.97;;
41263;SDS011;26998;48.714;9.414;2024-02-15T00:49:55;30.35;;;25.52;;
41263;SDS011;26998;48.714;9.414;2024-02-15T00:52:22;21.90;;;18.15;;
41263;SDS011;26998;48.714;9.414;2024-02-15T00:54:49;16.38;;;13.32;;
41263;SDS011;26998;48.714;9.414;2024-02-15T00:57:16;18.53;;;14.27;;
41263;SDS011;26998;48.714;9.414;2024-02-15T00:59:42;17.70;;;13.65;;
41263;SDS011;26998;48.714;9.414;2024-02-15T01:02:09;14.05;;;11.15;;
41263;SDS011;26998;48.714;9.414;2024-02-15T01:04:36;12.75;;;9.23;;
41263;SDS011;26998;48.714;9.414;2024-02-15T01:07:02;12.47;;;8.40;;
41263;SDS011;26998;48.714;9.414;2024-02-15T01:09:29;9.98;;;8.00;;
41263;SDS011;26998;48.714;9.414;2024-02-15T01:11:56;10.45;;;8.27;;
41263;SDS011;26998;48.714;9.414;2024-02-15T01:14:23;10.13;;;7.68;;
41263;SDS011;26998;48.714;9.414;2024-02-15T01:16:49;8.77;;;6.88;;
41263;SDS011;26998;48.714;9.414;2024-02-15T01:19:16;7.75;;;6.70;;
41263;SDS011;26998;48.714;9.414;2024-02-15T01:21:43;8.52;;;6.82;;
41263;SDS011;26998;48.714;9.414;2024-02-15T01:24:10;8.13;;;6.30;;
41263;SDS011;26998;48.714;9.414;2024-02-15T01:26:37;13.20;;;6.00;;
41263;SDS011;26998;48.714;9.414;2024-02-15T01:29:05;7.28;;;5.82;;
41263;SDS011;26998;48.714;9.414;2024-02-15T01:31:32;8.57;;;5.43;;
41263;SDS011;26998;48.714;9.414;2024-02-15T01:33:58;7.95;;;5.93;;
41263;SDS011;26998;48.714;9.414;2024-02-15T01:36:25;6.95;;;5.85;;
41263;SDS011;26998;48.714;9.414;2024-02-15T01:38:52;8.88;;;6.20;;
41263;SDS011;26998;48.714;9.414;2024-02-15T01:41:19;11.73;;;7.05;;
41263;SDS011;26998;48.714;9.414;2024-02-15T01:43:45;9.32;;;6.93;;
41263;SDS011;26998;48.714;9.414;2024-02-15T01:46:14;10.82;;;6.65;;
41263;SDS011;26998;48.714;9.414;2024-02-15T01:48:41;11.35;;;7.35;;
41263;SDS011;26998;48.714;9.414;2024-02-15T01:51:09;12.90;;;7.55;;
41263;SDS011;26998;48.714;9.414;2024-02-15T01:53:38;9.85;;;7.00;;
41263;SDS011;26998;48.714;9.414;2024-02-15T01:56:07;9.38;;;7.28;;
41263;SDS011;26998;48.714;9.414;2024-02-15T01:58:34;17.83;;;13.00;;
41263;SDS011;26998;48.714;9.414;2024-02-15T02:01:02;26.67;;;19.60;;
41263;SDS011;26998;48.714;9.414;2024-02-15T02:03:29;35.53;;;24.73;;
41263;SDS011;26998;48.714;9.414;2024-02-15T02:05:56;45.58;;;30.20;;
41263;SDS011;26998;48.714;9.414;2024-02-15T02:08:23;37.40;;;24.88;;
41263;SDS011;26998;48.714;9.414;2024-02-15T02:10:50;36.60;;;23.58;;
41263;SDS011;26998;48.714;9.414;2024-02-15T02:13:17;33.22;;;22.15;;
41263;SDS011;26998;48.714;9.414;2024-02-15T02:15:45;28.15;;;18.77;;
41263;SDS011;26998;48.714;9.414;2024-02-15T02:18:12;17.58;;;12.68;;
41263;SDS011;26998;48.714;9.414;2024-02-15T02:20:39;18.65;;;13.68;;
41263;SDS011;26998;48.714;9.414;2024-02-15T02:23:15;16.33;;;11.25;;
41263;SDS011;26998;48.714;9.414;2024-02-15T02:25:45;15.82;;;11.40;;
41263;SDS011;26998;48.714;9.414;2024-02-15T02:28:15;15.50;;;10.95;;
41263;SDS011;26998;48.714;9.414;2024-02-15T02:30:44;12.95;;;9.77;;
41263;SDS011;26998;48.714;9.414;2024-02-15T02:33:12;13.27;;;8.67;;
41263;SDS011;26998;48.714;9.414;2024-02-15T02:35:46;12.38;;;8.55;;
41263;SDS011;26998;48.714;9.414;2024-02-15T02:38:15;11.18;;;8.45;;
41263;SDS011;26998;48.714;9.414;2024-02-15T02:40:41;10.20;;;7.60;;
41263;SDS011;26998;48.714;9.414;2024-02-15T02:43:08;12.50;;;7.88;;
41263;SDS011;26998;48.714;9.414;2024-02-15T02:45:36;12.95;;;8.90;;
41263;SDS011;26998;48.714;9.414;2024-02-15T02:48:03;10.88;;;7.53;;
41263;SDS011;26998;48.714;9.414;2024-02-15T02:50:30;10.70;;;7.68;;
41263;SDS011;26998;48.714;9.414;2024-02-15T02:52:56;14.13;;;9.45;;
41263;SDS011;26998;48.714;9.414;2024-02-15T02:55:23;11.95;;;8.13;;
41263;SDS011;26998;48.714;9.414;2024-02-15T02:57:50;11.20;;;8.43;;
41263;SDS011;26998;48.714;9.414;2024-02-15T03:00:16;9.95;;;7.70;;
41263;SDS011;26998;48.714;9.414;2024-02-15T03:02:44;15.83;;;10.60;;
41263;SDS011;26998;48.714;9.414;2024-02-15T03:05:13;21.33;;;15.60;;
41263;SDS011;26998;48.714;9.414;2024-02-15T03:07:41;27.00;;;19.60;;
41263;SDS011;26998;48.714;9.414;2024-02-15T03:10:08;26.30;;;18.02;;
41263;SDS011;26998;48.714;9.414;2024-02-15T03:12:41;21.17;;;14.00;;
41263;SDS011;26998;48.714;9.414;2024-02-15T03:15:14;21.27;;;15.88;;
41263;SDS011;26998;48.714;9.414;2024-02-15T03:17:42;24.77;;;18.02;;
41263;SDS011;26998;48.714;9.414;2024-02-15T03:20:11;17.38;;;11.40;;
41263;SDS011;26998;48.714;9.414;2024-02-15T03:25:21;23.75;;;17.77;;
41263;SDS011;26998;48.714;9.414;2024-02-15T03:27:52;24.83;;;18.15;;
41263;SDS011;26998;48.714;9.414;2024-02-15T03:30:20;15.60;;;11.37;;
41263;SDS011;26998;48.714;9.414;2024-02-15T03:32:51;9.98;;;7.68;;
41263;SDS011;26998;48.714;9.414;2024-02-15T03:35:19;10.82;;;7.25;;
41263;SDS011;26998;48.714;9.414;2024-02-15T03:37:52;11.85;;;7.53;;
41263;SDS011;26998;48.714;9.414;2024-02-15T03:40:19;10.18;;;7.78;;
41263;SDS011;26998;48.714;9.414;2024-02-15T03:42:47;10.18;;;7.43;;
41263;SDS011;26998;48.714;9.414;2024-02-15T03:45:17;8.10;;;6.13;;
41263;SDS011;26998;48.714;9.414;2024-02-15T03:47:44;8.02;;;5.63;;
41263;SDS011;26998;48.714;9.414;2024-02-15T03:50:11;7.97;;;6.28;;
41263;SDS011;26998;48.714;9.414;2024-02-15T03:52:41;8.38;;;5.85;;
41263;SDS011;26998;48.714;9.414;2024-02-15T03:55:08;8.70;;;6.18;;
41263;SDS011;26998;48.714;9.414;2024-02-15T03:57:35;7.07;;;5.97;;
41263;SDS011;26998;48.714;9.414;2024-02-15T04:00:07;10.02;;;6.70;;
41263;SDS011;26998;48.714;9.414;2024-02-15T04:02:36;8.63;;;6.85;;
41263;SDS011;26998;48.714;9.414;2024-02-15T04:05:03;9.30;;;5.75;;
41263;SDS011;26998;48.714;9.414;2024-02-15T04:07:31;6.75;;;5.53;;
41263;SDS011;26998;48.714;9.414;2024-02-15T04:09:58;6.78;;;5.40;;
41263;SDS011;26998;48.714;9.414;2024-02-15T04:12:27;6.63;;;5.60;;
41263;SDS011;26998;48.714;9.414;2024-02-15T04:14:54;7.78;;;6.30;;
41263;SDS011;26998;48.714;9.414;2024-02-15T04:17:21;7.05;;;5.57;;
41263;SDS011;26998;48.714;9.414;2024-02-15T04:19:48;8.68;;;6.10;;
41263;SDS011;26998;48.714;9.414;2024-02-15T04:22:16;8.27;;;5.70;;
41263;SDS011;26998;48.714;9.414;2024-02-15T04:24:43;7.80;;;6.05;;
41263;SDS011;26998;48.714;9.414;2024-02-15T04:27:11;9.15;;;6.60;;
41263;SDS011;26998;48.714;9.414;2024-02-15T04:29:40;8.10;;;7.00;;
41263;SDS011;26998;48.714;9.414;2024-02-15T04:32:08;11.27;;;8.05;;
41263;SDS011;26998;48.714;9.414;2024-02-15T04:34:38;13.68;;;10.85;;
41263;SDS011;26998;48.714;9.414;2024-02-15T04:37:06;13.10;;;10.90;;
41263;SDS011;26998;48.714;9.414;2024-02-15T04:39:33;14.48;;;9.68;;
41263;SDS011;26998;48.714;9.414;2024-02-15T04:42:05;12.55;;;8.68;;
41263;SDS011;26998;48.714;9.414;2024-02-15T04:44:34;14.57;;;10.85;;
41263;SDS011;26998;48.714;9.414;2024-02-15T04:47:02;14.70;;;10.60;;
41263;SDS011;26998;48.714;9.414;2024-02-15T04:49:32;9.27;;;7.47;;
41263;SDS011;26998;48.714;9.414;2024-02-15T04:51:59;9.47;;;6.63;;
41263;SDS011;26998;48.714;9.414;2024-02-15T04:54:28;8.30;;;5.88;;
41263;SDS011;26998;48.714;9.414;2024-02-15T04:56:55;8.37;;;5.97;;
41263;SDS011;26998;48.714;9.414;2024-02-15T04:59:23;7.20;;;5.25;;
41263;SDS011;26998;48.714;9.414;2024-02-15T05:01:52;8.27;;;5.30;;
41263;SDS011;26998;48.714;9.414;2024-02-15T05:04:20;6.32;;;4.78;;
41263;SDS011;26998;48.714;9.414;2024-02-15T05:06:46;6.45;;;5.07;;
41263;SDS011;26998;48.714;9.414;2024-02-15T05:09:13;6.78;;;4.88;;
41263;SDS011;26998;48.714;9.414;2024-02-15T05:11:40;7.22;;;4.80;;
41263;SDS011;26998;48.714;9.414;2024-02-15T05:14:14;8.48;;;5.38;;
41263;SDS011;26998;48.714;9.414;2024-02-15T05:16:46;7.57;;;5.30;;
41263;SDS011;26998;48.714;9.414;2024-02-15T05:19:15;10.40;;;6.57;;
41263;SDS011;26998;48.714;9.414;2024-02-15T05:21:43;8.73;;;6.00;;
41263;SDS011;26998;48.714;9.414;2024-02-15T05:24:14;7.40;;;5.32;;
41263;SDS011;26998;48.714;9.414;2024-02-15T05:26:41;9.45;;;6.15;;
41263;SDS011;26998;48.714;9.414;2024-02-15T05:29:10;8.00;;;4.55;;
41263;SDS011;26998;48.714;9.414;2024-02-15T05:31:37;9.52;;;5.40;;
41263;SDS011;26998;48.714;9.414;2024-02-15T05:34:05;7.78;;;4.90;;
41263;SDS011;26998;48.714;9.414;2024-02-15T05:36:34;7.43;;;4.60;;
41263;SDS011;26998;48.714;9.414;2024-02-15T05:39:01;5.93;;;4.40;;
41263;SDS011;26998;48.714;9.414;2024-02-15T05:41:29;7.40;;;4.80;;
41263;SDS011;26998;48.714;9.414;2024-02-15T05:43:56;6.57;;;4.57;;
41263;SDS011;26998;48.714;9.414;2024-02-15T05:46:24;6.97;;;4.57;;
41263;SDS011;26998;48.714;9.414;2024-02-15T05:48:50;8.48;;;4.97;;
41263;SDS011;26998;48.714;9.414;2024-02-15T05:51:21;7.05;;;4.50;;
41263;SDS011;26998;48.714;9.414;2024-02-15T05:53:49;9.70;;;5.10;;
41263;SDS011;26998;48.714;9.414;2024-02-15T05:56:16;8.70;;;4.90;;
41263;SDS011;26998;48.714;9.414;2024-02-15T05:58:43;9.90;;;4.95;;
41263;SDS011;26998;48.714;9.414;2024-02-15T06:01:10;9.23;;;5.28;;
41263;SDS011;26998;48.714;9.414;2024-02-15T06:03:39;6.43;;;5.05;;
41263;SDS011;26998;48.714;9.414;2024-02-15T06:06:08;7.85;;;5.43;;
41263;SDS011;26998;48.714;9.414;2024-02-15T06:08:35;8.88;;;4.82;;
41263;SDS011;26998;48.714;9.414;2024-02-15T06:11:03;6.43;;;4.35;;
41263;SDS011;26998;48.714;9.414;2024-02-15T06:13:31;9.20;;;4.93;;
41263;SDS011;26998;48.714;9.414;2024-02-15T06:15:58;10.70;;;4.88;;
41263;SDS011;26998;48.714;9.414;2024-02-15T06:18:25;6.45;;;4.78;;
41263;SDS011;26998;48.714;9.414;2024-02-15T06:20:56;7.78;;;5.00;;
41263;SDS011;26998;48.714;9.414;2024-02-15T06:23:28;8.27;;;5.30;;
41263;SDS011;26998;48.714;9.414;2024-02-15T06:25:56;6.93;;;4.97;;
41263;SDS011;26998;48.714;9.414;2024-02-15T06:28:28;11.70;;;5.78;;
41263;SDS011;26998;48.714;9.414;2024-02-15T06:31:14;10.73;;;4.90;;
41263;SDS011;26998;48.714;9.414;2024-02-15T06:33:59;8.25;;;5.43;;
41263;SDS011;26998;48.714;9.414;2024-02-15T06:39:34;11.88;;;6.60;;
41263;SDS011;26998;48.714;9.414;2024-02-15T06:42:09;11.77;;;6.68;;
41263;SDS011;26998;48.714;9.414;2024-02-15T06:44:45;10.77;;;7.45;;
41263;SDS011;26998;48.714;9.414;2024-02-15T06:47:13;8.77;;;7.50;;
41263;SDS011;26998;48.714;9.414;2024-02-15T06:49:43;12.18;;;8.30;;
41263;SDS011;26998;48.714;9.414;2024-02-15T06:52:13;11.48;;;8.88;;
41263;SDS011;26998;48.714;9.414;2024-02-15T06:54:40;14.32;;;9.50;;
41263;SDS011;26998;48.714;9.414;2024-02-15T06:57:07;12.35;;;8.65;;
41263;SDS011;26998;48.714;9.414;2024-02-15T06:59:34;12.13;;;8.90;;
41263;SDS011;26998;48.714;9.414;2024-02-15T07:02:01;13.80;;;8.30;;
41263;SDS011;26998;48.714;9.414;2024-02-15T07:04:31;14.30;;;9.35;;
41263;SDS011;26998;48.714;9.414;2024-02-15T07:06:59;13.15;;;9.40;;
41263;SDS011;26998;48.714;9.414;2024-02-15T07:09:26;14.35;;;9.38;;
41263;SDS011;26998;48.714;9.414;2024-02-15T07:11:54;13.40;;;9.07;;
41263;SDS011;26998;48.714;9.414;2024-02-15T07:14:21;10.88;;;8.07;;
41263;SDS011;26998;48.714;9.414;2024-02-15T07:16:48;13.13;;;8.60;;
41263;SDS011;26998;48.714;9.414;2024-02-15T07:19:16;11.32;;;7.82;;
41263;SDS011;26998;48.714;9.414;2024-02-15T07:21:43;11.65;;;7.18;;
41263;SDS011;26998;48.714;9.414;2024-02-15T07:24:10;12.07;;;6.93;;
41263;SDS011;26998;48.714;9.414;2024-02-15T07:26:37;9.77;;;7.55;;
41263;SDS011;26998;48.714;9.414;2024-02-15T07:29:04;13.98;;;7.20;;
41263;SDS011;26998;48.714;9.414;2024-02-15T07:31:34;11.75;;;6.75;;
41263;SDS011;26998;48.714;9.414;2024-02-15T07:34:01;9.15;;;6.22;;
41263;SDS011;26998;48.714;9.414;2024-02-15T07:36:30;9.32;;;6.68;;
41263;SDS011;26998;48.714;9.414;2024-02-15T07:38:56;10.00;;;7.20;;
41263;SDS011;26998;48.714;9.414;2024-02-15T07:41:28;13.05;;;7.57;;
41263;SDS011;26998;48.714;9.414;2024-02-15T07:43:54;13.15;;;7.57;;
41263;SDS011;26998;48.714;9.414;2024-02-15T07:46:22;16.38;;;7.55;;
41263;SDS011;26998;48.714;9.414;2024-02-15T07:48:49;13.35;;;8.32;;
41263;SDS011;26998;48.714;9.414;2024-02-15T07:51:16;12.85;;;8.00;;
41263;SDS011;26998;48.714;9.414;2024-02-15T07:53:47;11.07;;;7.33;;
41263;SDS011;26998;48.714;9.414;2024-02-15T07:56:14;19.00;;;8.95;;
41263;SDS011;26998;48.714;9.414;2024-02-15T07:58:42;14.37;;;8.07;;
41263;SDS011;26998;48.714;9.414;2024-02-15T08:01:18;9.95;;;7.32;;
41263;SDS011;26998;48.714;9.414;2024-02-15T08:03:51;11.98;;;7.10;;
41263;SDS011;26998;48.714;9.414;2024-02-15T08:06:21;10.38;;;7.65;;
41263;SDS011;26998;48.714;9.414;2024-02-15T08:08:52;17.20;;;8.25;;
41263;SDS011;26998;48.714;9.414;2024-02-15T08:11:19;13.65;;;7.15;;
41263;SDS011;26998;48.714;9.414;2024-02-15T08:13:49;12.93;;;7.53;;
41263;SDS011;26998;48.714;9.414;2024-02-15T08:16:21;11.50;;;7.18;;
41263;SDS011;26998;48.714;9.414;2024-02-15T08:18:53;16.27;;;7.43;;
41263;SDS011;26998;48.714;9.414;2024-02-15T08:21:28;9.88;;;6.43;;
41263;SDS011;26998;48.714;9.414;2024-02-15T08:23:56;9.45;;;6.22;;
41263;SDS011;26998;48.714;9.414;2024-02-15T08:26:23;7.72;;;6.50;;
41263;SDS011;26998;48.714;9.414;2024-02-15T08:28:49;7.35;;;5.68;;
41263;SDS011;26998;48.714;9.414;2024-02-15T08:31:16;8.02;;;6.13;;
41263;SDS011;26998;48.714;9.414;2024-02-15T08:33:43;7.18;;;5.72;;
41263;SDS011;26998;48.714;9.414;2024-02-15T08:36:11;9.55;;;6.70;;
41263;SDS011;26998;48.714;9.414;2024-02-15T08:38:40;7.80;;;5.88;;
41263;SDS011;26998;48.714;9.414;2024-02-15T08:41:07;13.95;;;7.07;;
41263;SDS011;26998;48.714;9.414;2024-02-15T08:43:37;10.18;;;6.25;;
41263;SDS011;26998;48.714;9.414;2024-02-15T08:46:08;10.02;;;5.97;;
41263;SDS011;26998;48.714;9.414;2024-02-15T08:48:34;10.13;;;6.07;;
41263;SDS011;26998;48.714;9.414;2024-02-15T08:51:02;10.02;;;6.35;;
41263;SDS011;26998;48.714;9.414;2024-02-15T08:53:29;10.52;;;6.55;;
41263;SDS011;26998;48.714;9.414;2024-02-15T08:55:55;7.17;;;5.40;;
41263;SDS011;26998;48.714;9.414;2024-02-15T08:58:22;6.95;;;5.25;;
41263;SDS011;26998;48.714;9.414;2024-02-15T09:00:49;7.38;;;5.57;;
41263;SDS011;26998;48.714;9.414;2024-02-15T09:03:15;9.02;;;5.95;;
41263;SDS011;26998;48.714;9.414;2024-02-15T09:05:42;6.35;;;5.15;;
41263;SDS011;26998;48.714;9.414;2024-02-15T09:08:09;7.75;;;5.30;;
41263;SDS011;26998;48.714;9.414;2024-02-15T09:10:36;8.43;;;5.20;;
41263;SDS011;26998;48.714;9.414;2024-02-15T09:13:04;8.17;;;5.00;;
41263;SDS011;26998;48.714;9.414;2024-02-15T09:15:32;8.32;;;4.80;;
41263;SDS011;26998;48.714;9.414;2024-02-15T09:17:59;6.97;;;4.50;;
41263;SDS011;26998;48.714;9.414;2024-02-15T09:20:25;5.90;;;4.63;;
41263;SDS011;26998;48.714;9.414;2024-02-15T09:22:55;8.63;;;5.32;;
41263;SDS011;26998;48.714;9.414;2024-02-15T09:25:23;9.52;;;5.55;;
41263;SDS011;26998;48.714;9.414;2024-02-15T09:27:50;6.87;;;5.20;;
41263;SDS011;26998;48.714;9.414;2024-02-15T09:30:17;9.73;;;7.27;;
41263;SDS011;26998;48.714;9.414;2024-02-15T09:32:44;8.38;;;4.88;;
41263;SDS011;26998;48.714;9.414;2024-02-15T09:35:12;10.02;;;5.32;;
41263;SDS011;26998;48.714;9.414;2024-02-15T09:37:46;9.48;;;6.70;;
41263;SDS011;26998;48.714;9.414;2024-02-15T09:40:17;10.15;;;5.60;;
41263;SDS011;26998;48.714;9.414;2024-02-15T09:42:45;8.23;;;4.82;;
41263;SDS011;26998;48.714;9.414;2024-02-15T09:45:13;8.10;;;4.53;;
41263;SDS011;26998;48.714;9.414;2024-02-15T09:47:42;5.23;;;4.07;;
41263;SDS011;26998;48.714;9.414;2024-02-15T09:50:14;5.57;;;4.28;;
41263;SDS011;26998;48.714;9.414;2024-02-15T09:52:51;5.25;;;3.72;;
41263;SDS011;26998;48.714;9.414;2024-02-15T09:55:20;4.63;;;3.50;;
41263;SDS011;26998;48.714;9.414;2024-02-15T09:57:50;4.13;;;2.95;;
41263;SDS011;26998;48.714;9.414;2024-02-15T10:00:17;4.10;;;2.70;;
41263;SDS011;26998;48.714;9.414;2024-02-15T10:02:46;4.55;;;2.63;;
41263;SDS011;26998;48.714;9.414;2024-02-15T10:05:14;7.65;;;2.70;;
41263;SDS011;26998;48.714;9.414;2024-02-15T10:07:42;6.40;;;2.90;;
41263;SDS011;26998;48.714;9.414;2024-02-15T10:12:53;5.07;;;3.00;;
41263;SDS011;26998;48.714;9.414;2024-02-15T10:15:34;5.78;;;3.10;;
41263;SDS011;26998;48.714;9.414;2024-02-15T10:18:06;3.88;;;2.70;;
41263;SDS011;26998;48.714;9.414;2024-02-15T10:20:37;9.52;;;3.13;;
41263;SDS011;26998;48.714;9.414;2024-02-15T10:23:08;4.43;;;2.35;;
41263;SDS011;26998;48.714;9.414;2024-02-15T10:25:40;3.53;;;1.90;;
41263;SDS011;26998;48.714;9.414;2024-02-15T10:28:08;3.60;;;1.80;;
41263;SDS011;26998;48.714;9.414;2024-02-15T10:30:37;4.05;;;1.70;;
41263;SDS011;26998;48.714;9.414;2024-02-15T10:33:04;4.13;;;1.75;;
41263;SDS011;26998;48.714;9.414;2024-02-15T10:35:31;5.20;;;2.00;;
41263;SDS011;26998;48.714;9.414;2024-02-15T10:38:05;3.05;;;1.70;;
41263;SDS011;26998;48.714;9.414;2024-02-15T10:40:37;4.72;;;1.70;;
41263;SDS011;26998;48.714;9.414;2024-02-15T10:43:06;4.28;;;1.60;;
41263;SDS011;26998;48.714;9.414;2024-02-15T10:45:34;6.97;;;1.90;;
41263;SDS011;26998;48.714;9.414;2024-02-15T10:48:12;2.65;;;1.58;;
41263;SDS011;26998;48.714;9.414;2024-02-15T10:50:40;4.47;;;1.27;;
41263;SDS011;26998;48.714;9.414;2024-02-15T10:53:28;5.22;;;2.00;;
41263;SDS011;26998;48.714;9.414;2024-02-15T10:55:59;3.53;;;1.45;;
41263;SDS011;26998;48.714;9.414;2024-02-15T10:58:49;3.67;;;1.35;;
41263;SDS011;26998;48.714;9.414;2024-02-15T11:01:17;5.40;;;1.40;;
41263;SDS011;26998;48.714;9.414;2024-02-15T11:03:50;3.67;;;1.50;;
41263;SDS011;26998;48.714;9.414;2024-02-15T11:06:20;3.15;;;1.30;;
41263;SDS011;26998;48.714;9.414;2024-02-15T11:08:48;3.93;;;1.43;;
41263;SDS011;26998;48.714;9.414;2024-02-15T11:11:16;3.77;;;1.27;;
41263;SDS011;26998;48.714;9.414;2024-02-15T11:13:46;2.30;;;1.30;;
41263;SDS011;26998;48.714;9.414;2024-02-15T11:17:01;1.98;;;1.10;;
41263;SDS011;26998;48.714;9.414;2024-02-15T11:19:39;3.67;;;1.35;;
41263;SDS011;26998;48.714;9.414;2024-02-15T11:21:59;4.37;;;1.67;;
41263;SDS011;26998;48.714;9.414;2024-02-15T11:24:30;3.75;;;1.65;;
41263;SDS011;26998;48.714;9.414;2024-02-15T11:27:04;2.92;;;1.27;;
41263;SDS011;26998;48.714;9.414;2024-02-15T11:35:07;2.25;;;1.20;;
41263;SDS011;26998;48.714;9.414;2024-02-15T11:43:07;2.95;;;1.60;;
41263;SDS011;26998;48.714;9.414;2024-02-15T11:45:36;1.97;;;1.30;;
41263;SDS011;26998;48.714;9.414;2024-02-15T11:48:11;3.50;;;1.97;;
41263;SDS011;26998;48.714;9.414;2024-02-15T11:50:40;3.03;;;1.27;;
41263;SDS011;26998;48.714;9.414;2024-02-15T11:53:08;2.65;;;1.75;;
41263;SDS011;26998;48.714;9.414;2024-02-15T11:55:38;13.73;;;9.10;;
41263;SDS011;26998;48.714;9.414;2024-02-15T11:58:05;3.50;;;1.90;;
41263;SDS011;26998;48.714;9.414;2024-02-15T12:00:38;3.80;;;2.08;;
41263;SDS011;26998;48.714;9.414;2024-02-15T12:03:24;3.17;;;1.53;;
41263;SDS011;26998;48.714;9.414;2024-02-15T12:06:16;2.65;;;1.25;;
41263;SDS011;26998;48.714;9.414;2024-02-15T12:09:03;8.50;;;2.90;;
41263;SDS011;26998;48.714;9.414;2024-02-15T12:11:57;3.77;;;1.50;;
41263;SDS011;26998;48.714;9.414;2024-02-15T12:14:43;2.78;;;1.20;;
41263;SDS011;26998;48.714;9.414;2024-02-15T12:17:29;6.72;;;1.80;;
41263;SDS011;26998;48.714;9.414;2024-02-15T12:20:15;3.97;;;1.25;;
41263;SDS011;26998;48.714;9.414;2024-02-15T12:22:45;2.88;;;1.30;;
41263;SDS011;26998;48.714;9.414;2024-02-15T12:25:14;4.72;;;1.27;;
41263;SDS011;26998;48.714;9.414;2024-02-15T12:27:43;2.95;;;1.25;;
41263;SDS011;26998;48.714;9.414;2024-02-15T12:30:14;1.70;;;1.00;;
41263;SDS011;26998;48.714;9.414;2024-02-15T12:32:42;4.80;;;1.40;;
41263;SDS011;26998;48.714;9.414;2024-02-15T12:35:11;2.65;;;1.17;;
41263;SDS011;26998;48.714;9.414;2024-02-15T12:38:00;2.15;;;1.17;;
41263;SDS011;26998;48.714;9.414;2024-02-15T12:40:32;4.45;;;1.73;;
41263;SDS011;26998;48.714;9.414;2024-02-15T12:43:00;3.63;;;1.63;;
41263;SDS011;26998;48.714;9.414;2024-02-15T12:45:27;3.67;;;1.50;;
41263;SDS011;26998;48.714;9.414;2024-02-15T12:47:56;2.20;;;1.20;;
41263;SDS011;26998;48.714;9.414;2024-02-15T12:50:28;2.88;;;1.40;;
41263;SDS011;26998;48.714;9.414;2024-02-15T12:52:56;1.90;;;1.10;;
41263;SDS011;26998;48.714;9.414;2024-02-15T12:55:30;1.33;;;1.02;;
41263;SDS011;26998;48.714;9.414;2024-02-15T12:58:05;2.95;;;1.30;;
41263;SDS011;26998;48.714;9.414;2024-02-15T13:00:36;4.85;;;1.38;;
41263;SDS011;26998;48.714;9.414;2024-02-15T13:03:06;4.63;;;1.60;;
41263;SDS011;26998;48.714;9.414;2024-02-15T13:05:39;3.30;;;1.20;;
41263;SDS011;26998;48.714;9.414;2024-02-15T13:08:07;3.47;;;1.10;;
41263;SDS011;26998;48.714;9.414;2024-02-15T13:10:41;3.10;;;1.30;;
41263;SDS011;26998;48.714;9.414;2024-02-15T13:13:08;2.28;;;1.20;;
41263;SDS011;26998;48.714;9.414;2024-02-15T13:15:37;2.53;;;1.20;;
41263;SDS011;26998;48.714;9.414;2024-02-15T13:18:05;1.50;;;1.20;;
41263;SDS011;26998;48.714;9.414;2024-02-15T13:20:32;3.17;;;1.13;;
41263;SDS011;26998;48.714;9.414;2024-02-15T13:23:10;2.53;;;1.30;;
41263;SDS011;26998;48.714;9.414;2024-02-15T13:25:52;2.72;;;1.35;;
41263;SDS011;26998;48.714;9.414;2024-02-15T13:28:19;4.75;;;1.48;;
41263;SDS011;26998;48.714;9.414;2024-02-15T13:30:46;2.88;;;1.10;;
41263;SDS011;26998;48.714;9.414;2024-02-15T13:33:15;2.83;;;1.08;;
41263;SDS011;26998;48.714;9.414;2024-02-15T13:35:43;2.35;;;1.20;;
41263;SDS011;26998;48.714;9.414;2024-02-15T13:38:11;2.95;;;1.33;;
41263;SDS011;26998;48.714;9.414;2024-02-15T13:40:41;2.75;;;1.10;;
41263;SDS011;26998;48.714;9.414;2024-02-15T13:43:10;3.20;;;1.30;;
41263;SDS011;26998;48.714;9.414;2024-02-15T13:45:40;2.50;;;1.33;;
41263;SDS011;26998;48.714;9.414;2024-02-15T13:48:08;1.40;;;1.08;;
41263;SDS011;26998;48.714;9.414;2024-02-15T13:50:36;4.30;;;1.42;;
41263;SDS011;26998;48.714;9.414;2024-02-15T13:53:06;3.45;;;1.23;;
41263;SDS011;26998;48.714;9.414;2024-02-15T13:55:33;2.70;;;1.05;;
41263;SDS011;26998;48.714;9.414;2024-02-15T13:58:00;2.63;;;1.10;;
41263;SDS011;26998;48.714;9.414;2024-02-15T14:00:28;2.47;;;1.20;;
41263;SDS011;26998;48.714;9.414;2024-02-15T14:03:01;2.13;;;1.10;;
41263;SDS011;26998;48.714;9.414;2024-02-15T14:05:29;2.25;;;1.30;;
41263;SDS011;26998;48.714;9.414;2024-02-15T14:07:58;2.75;;;1.10;;
41263;SDS011;26998;48.714;9.414;2024-02-15T14:10:27;5.90;;;1.70;;
41263;SDS011;26998;48.714;9.414;2024-02-15T14:12:56;2.22;;;1.17;;
41263;SDS011;26998;48.714;9.414;2024-02-15T14:15:31;3.83;;;1.35;;
41263;SDS011;26998;48.714;9.414;2024-02-15T14:18:09;2.25;;;1.10;;
41263;SDS011;26998;48.714;9.414;2024-02-15T14:20:41;3.45;;;1.63;;
41263;SDS011;26998;48.714;9.414;2024-02-15T14:23:09;3.90;;;1.20;;
41263;SDS011;26998;48.714;9.414;2024-02-15T14:25:41;6.70;;;1.58;;
41263;SDS011;26998;48.714;9.414;2024-02-15T14:28:08;2.70;;;1.30;;
41263;SDS011;26998;48.714;9.414;2024-02-15T14:30:36;3.30;;;1.30;;
41263;SDS011;26998;48.714;9.414;2024-02-15T14:33:24;4.07;;;1.80;;
41263;SDS011;26998;48.714;9.414;2024-02-15T14:35:59;4.32;;;2.47;;
41263;SDS011;26998;48.714;9.414;2024-02-15T14:38:27;4.97;;;1.90;;
41263;SDS011;26998;48.714;9.414;2024-02-15T14:40:55;4.25;;;1.60;;
41263;SDS011;26998;48.714;9.414;2024-02-15T14:43:24;3.85;;;1.60;;
41263;SDS011;26998;48.714;9.414;2024-02-15T14:45:55;5.07;;;1.87;;
41263;SDS011;26998;48.714;9.414;2024-02-15T14:48:23;4.20;;;1.85;;
41263;SDS011;26998;48.714;9.414;2024-02-15T14:50:51;4.28;;;1.92;;
41263;SDS011;26998;48.714;9.414;2024-02-15T14:53:20;3.75;;;1.70;;
41263;SDS011;26998;48.714;9.414;2024-02-15T14:55:46;2.78;;;1.50;;
41263;SDS011;26998;48.714;9.414;2024-02-15T14:58:14;3.22;;;1.55;;
41263;SDS011;26998;48.714;9.414;2024-02-15T15:00:45;2.83;;;1.52;;
41263;SDS011;26998;48.714;9.414;2024-02-15T15:03:14;2.83;;;1.63;;
41263;SDS011;26998;48.714;9.414;2024-02-15T15:05:42;4.88;;;1.60;;
41263;SDS011;26998;48.714;9.414;2024-02-15T15:08:28;2.63;;;1.50;;
41263;SDS011;26998;48.714;9.414;2024-02-15T15:11:14;2.28;;;1.60;;
41263;SDS011;26998;48.714;9.414;2024-02-15T15:14:00;5.38;;;1.60;;
41263;SDS011;26998;48.714;9.414;2024-02-15T15:16:27;4.00;;;1.40;;